sensor_id;sensor_type;location;lat;lon;timestamp;pressure;altitude;pressure_sealevel;temperature;humidity
84890;BME280;75153;52.222;5.160;2024-01-27T00:01:21;103401.97;;;3.77;81.31
84890;BME280;75153;52.222;5.160;2024-01-27T00:03:46;103405.88;;;3.81;81.46
84890;BME280;75153;52.222;5.160;2024-01-27T00:06:11;103402.81;;;3.86;81.36
84890;BME280;75153;52.222;5.160;2024-01-27T00:08:37;103401.38;;;3.92;81.46
84890;BME280;75153;52.222;5.160;2024-01-27T00:11:02;103405.78;;;3.91;81.51
84890;BME280;75153;52.222;5.160;2024-01-27T00:13:28;103411.63;;;3.93;81.55
84890;BME280;75153;52.222;5.160;2024-01-27T00:15:53;103417.22;;;3.98;81.05
84890;BME280;75153;52.222;5.160;2024-01-27T00:18:20;103412.16;;;3.97;81.32
84890;BME280;75153;52.222;5.160;2024-01-27T00:20:45;103419.31;;;3.95;81.30
84890;BME280;75153;52.222;5.160;2024-01-27T00:23:11;103418.16;;;3.89;81.17
84890;BME280;75153;52.222;5.160;2024-01-27T00:25:36;103416.00;;;3.85;81.16
84890;BME280;75153;52.222;5.160;2024-01-27T00:28:02;103419.91;;;3.80;81.13
84890;BME280;75153;52.222;5.160;2024-01-27T00:30:27;103411.75;;;3.75;81.15
84890;BME280;75153;52.222;5.160;2024-01-27T00:32:53;103412.50;;;3.68;81.20
84890;BME280;75153;52.222;5.160;2024-01-27T00:35:18;103409.41;;;3.64;81.25
84890;BME280;75153;52.222;5.160;2024-01-27T00:37:43;103410.03;;;3.58;81.24
84890;BME280;75153;52.222;5.160;2024-01-27T00:40:10;103411.16;;;3.55;81.29
84890;BME280;75153;52.222;5.160;2024-01-27T00:42:36;103413.25;;;3.52;81.40
84890;BME280;75153;52.222;5.160;2024-01-27T00:45:04;103410.28;;;3.47;81.47
84890;BME280;75153;52.222;5.160;2024-01-27T00:47:30;103411.91;;;3.48;81.68
84890;BME280;75153;52.222;5.160;2024-01-27T00:49:55;103408.66;;;3.46;81.75
84890;BME280;75153;52.222;5.160;2024-01-27T00:52:21;103421.19;;;3.42;81.72
84890;BME280;75153;52.222;5.160;2024-01-27T00:54:46;103413.84;;;3.37;81.94
84890;BME280;75153;52.222;5.160;2024-01-27T00:57:12;103417.41;;;3.36;81.75
84890;BME280;75153;52.222;5.160;2024-01-27T00:59:37;103416.91;;;3.33;81.75
84890;BME280;75153;52.222;5.160;2024-01-27T01:02:04;103416.69;;;3.26;81.61
84890;BME280;75153;52.222;5.160;2024-01-27T01:04:29;103411.63;;;3.25;81.81
84890;BME280;75153;52.222;5.160;2024-01-27T01:06:55;103413.56;;;3.23;81.63
84890;BME280;75153;52.222;5.160;2024-01-27T01:09:20;103413.88;;;3.20;81.64
84890;BME280;75153;52.222;5.160;2024-01-27T01:11:46;103418.75;;;3.14;81.96
84890;BME280;75153;52.222;5.160;2024-01-27T01:14:11;103411.06;;;3.13;81.62
84890;BME280;75153;52.222;5.160;2024-01-27T01:16:37;103412.19;;;3.10;81.86
84890;BME280;75153;52.222;5.160;2024-01-27T01:19:02;103425.38;;;3.09;81.92
84890;BME280;75153;52.222;5.160;2024-01-27T01:21:27;103427.00;;;3.10;81.97
84890;BME280;75153;52.222;5.160;2024-01-27T01:23:53;103420.97;;;3.09;82.04
84890;BME280;75153;52.222;5.160;2024-01-27T01:26:19;103433.34;;;3.07;82.16
84890;BME280;75153;52.222;5.160;2024-01-27T01:28:44;103436.63;;;3.09;82.49
84890;BME280;75153;52.222;5.160;2024-01-27T01:31:09;103432.53;;;3.07;81.94
84890;BME280;75153;52.222;5.160;2024-01-27T01:33:35;103429.75;;;3.08;81.98
84890;BME280;75153;52.222;5.160;2024-01-27T01:36:00;103430.06;;;3.05;82.58
84890;BME280;75153;52.222;5.160;2024-01-27T01:38:26;103426.63;;;3.05;82.36
84890;BME280;75153;52.222;5.160;2024-01-27T01:40:51;103423.53;;;3.01;82.31
84890;BME280;75153;52.222;5.160;2024-01-27T01:43:16;103428.06;;;2.99;82.12
84890;BME280;75153;52.222;5.160;2024-01-27T01:45:42;103421.91;;;3.00;82.23
84890;BME280;75153;52.222;5.160;2024-01-27T01:48:07;103418.63;;;2.98;82.01
84890;BME280;75153;52.222;5.160;2024-01-27T01:50:34;103431.78;;;2.97;82.05
84890;BME280;75153;52.222;5.160;2024-01-27T01:52:59;103432.91;;;2.94;82.16
84890;BME280;75153;52.222;5.160;2024-01-27T01:55:25;103420.84;;;2.93;82.12
84890;BME280;75153;52.222;5.160;2024-01-27T01:57:51;103428.00;;;2.91;82.14
84890;BME280;75153;52.222;5.160;2024-01-27T02:00:17;103424.44;;;2.92;82.44
84890;BME280;75153;52.222;5.160;2024-01-27T02:02:43;103433.38;;;2.89;82.47
84890;BME280;75153;52.222;5.160;2024-01-27T02:05:11;103438.59;;;2.89;82.46
84890;BME280;75153;52.222;5.160;2024-01-27T02:07:36;103442.00;;;2.90;82.75
84890;BME280;75153;52.222;5.160;2024-01-27T02:10:02;103430.78;;;2.89;82.77
84890;BME280;75153;52.222;5.160;2024-01-27T02:12:27;103437.59;;;2.90;82.52
84890;BME280;75153;52.222;5.160;2024-01-27T02:14:53;103439.22;;;2.91;82.84
84890;BME280;75153;52.222;5.160;2024-01-27T02:17:18;103440.22;;;2.90;82.60
84890;BME280;75153;52.222;5.160;2024-01-27T02:19:43;103432.69;;;2.87;82.43
84890;BME280;75153;52.222;5.160;2024-01-27T02:22:09;103431.06;;;2.86;82.48
84890;BME280;75153;52.222;5.160;2024-01-27T02:24:34;103437.41;;;2.84;82.60
84890;BME280;75153;52.222;5.160;2024-01-27T02:26:59;103430.53;;;2.83;82.51
84890;BME280;75153;52.222;5.160;2024-01-27T02:29:25;103439.63;;;2.79;82.32
84890;BME280;75153;52.222;5.160;2024-01-27T02:31:53;103437.16;;;2.77;82.59
84890;BME280;75153;52.222;5.160;2024-01-27T02:34:18;103440.59;;;2.78;82.62
84890;BME280;75153;52.222;5.160;2024-01-27T02:36:43;103447.06;;;2.74;82.69
84890;BME280;75153;52.222;5.160;2024-01-27T02:39:09;103446.13;;;2.75;82.69
84890;BME280;75153;52.222;5.160;2024-01-27T02:41:34;103445.13;;;2.76;82.89
84890;BME280;75153;52.222;5.160;2024-01-27T02:44:06;103443.34;;;2.76;82.83
84890;BME280;75153;52.222;5.160;2024-01-27T02:46:32;103441.56;;;2.77;82.97
84890;BME280;75153;52.222;5.160;2024-01-27T02:48:57;103432.94;;;2.76;82.66
84890;BME280;75153;52.222;5.160;2024-01-27T02:51:23;103432.13;;;2.76;83.16
84890;BME280;75153;52.222;5.160;2024-01-27T02:53:48;103439.94;;;2.76;82.86
84890;BME280;75153;52.222;5.160;2024-01-27T02:56:16;103435.22;;;2.79;83.07
84890;BME280;75153;52.222;5.160;2024-01-27T02:58:41;103424.81;;;2.79;83.27
84890;BME280;75153;52.222;5.160;2024-01-27T03:01:07;103428.91;;;2.82;83.21
84890;BME280;75153;52.222;5.160;2024-01-27T03:03:33;103434.13;;;2.82;83.61
84890;BME280;75153;52.222;5.160;2024-01-27T03:05:58;103443.41;;;2.84;83.58
84890;BME280;75153;52.222;5.160;2024-01-27T03:08:23;103440.00;;;2.84;83.52
84890;BME280;75153;52.222;5.160;2024-01-27T03:10:49;103428.91;;;2.82;83.54
84890;BME280;75153;52.222;5.160;2024-01-27T03:13:14;103433.44;;;2.80;83.27
84890;BME280;75153;52.222;5.160;2024-01-27T03:15:39;103432.50;;;2.81;83.17
84890;BME280;75153;52.222;5.160;2024-01-27T03:18:07;103431.81;;;2.79;83.34
84890;BME280;75153;52.222;5.160;2024-01-27T03:20:33;103434.41;;;2.79;83.20
84890;BME280;75153;52.222;5.160;2024-01-27T03:22:58;103436.03;;;2.80;83.13
84890;BME280;75153;52.222;5.160;2024-01-27T03:25:24;103434.56;;;2.77;83.08
84890;BME280;75153;52.222;5.160;2024-01-27T03:27:51;103436.34;;;2.77;83.38
84890;BME280;75153;52.222;5.160;2024-01-27T03:30:17;103434.84;;;2.74;83.32
84890;BME280;75153;52.222;5.160;2024-01-27T03:32:42;103428.69;;;2.75;83.17
84890;BME280;75153;52.222;5.160;2024-01-27T03:35:07;103433.75;;;2.77;83.47
84890;BME280;75153;52.222;5.160;2024-01-27T03:37:33;103441.94;;;2.82;83.32
84890;BME280;75153;52.222;5.160;2024-01-27T03:40:00;103443.22;;;2.78;83.65
84890;BME280;75153;52.222;5.160;2024-01-27T03:42:25;103443.72;;;2.81;83.81
84890;BME280;75153;52.222;5.160;2024-01-27T03:44:51;103447.06;;;2.91;83.05
84890;BME280;75153;52.222;5.160;2024-01-27T03:47:17;103453.34;;;2.81;84.02
84890;BME280;75153;52.222;5.160;2024-01-27T03:49:43;103447.81;;;2.84;83.52
84890;BME280;75153;52.222;5.160;2024-01-27T03:52:09;103455.63;;;2.84;83.36
84890;BME280;75153;52.222;5.160;2024-01-27T03:54:37;103451.06;;;2.86;83.21
84890;BME280;75153;52.222;5.160;2024-01-27T03:57:03;103450.13;;;2.87;83.37
84890;BME280;75153;52.222;5.160;2024-01-27T03:59:28;103443.84;;;2.80;83.28
84890;BME280;75153;52.222;5.160;2024-01-27T04:01:53;103444.41;;;2.83;83.34
84890;BME280;75153;52.222;5.160;2024-01-27T04:04:19;103452.66;;;2.79;83.54
84890;BME280;75153;52.222;5.160;2024-01-27T04:06:44;103448.44;;;2.78;83.48
84890;BME280;75153;52.222;5.160;2024-01-27T04:09:09;103438.81;;;2.78;83.33
84890;BME280;75153;52.222;5.160;2024-01-27T04:11:35;103442.53;;;2.76;83.53
84890;BME280;75153;52.222;5.160;2024-01-27T04:14:04;103446.13;;;2.75;83.57
84890;BME280;75153;52.222;5.160;2024-01-27T04:16:30;103448.72;;;2.75;83.64
84890;BME280;75153;52.222;5.160;2024-01-27T04:18:55;103458.00;;;2.77;83.46
84890;BME280;75153;52.222;5.160;2024-01-27T04:21:21;103457.34;;;2.75;83.74
84890;BME280;75153;52.222;5.160;2024-01-27T04:23:46;103458.31;;;2.74;83.52
84890;BME280;75153;52.222;5.160;2024-01-27T04:26:12;103451.59;;;2.72;83.60
84890;BME280;75153;52.222;5.160;2024-01-27T04:28:37;103455.56;;;2.76;83.48
84890;BME280;75153;52.222;5.160;2024-01-27T04:31:03;103459.41;;;2.72;83.64
84890;BME280;75153;52.222;5.160;2024-01-27T04:33:29;103454.75;;;2.75;83.59
84890;BME280;75153;52.222;5.160;2024-01-27T04:35:54;103457.78;;;2.70;83.85
84890;BME280;75153;52.222;5.160;2024-01-27T04:38:19;103463.81;;;2.71;83.81
84890;BME280;75153;52.222;5.160;2024-01-27T04:40:45;103465.91;;;2.67;84.24
84890;BME280;75153;52.222;5.160;2024-01-27T04:43:15;103469.03;;;2.71;83.69
84890;BME280;75153;52.222;5.160;2024-01-27T04:45:40;103474.53;;;2.68;83.81
84890;BME280;75153;52.222;5.160;2024-01-27T04:48:06;103479.06;;;2.66;83.66
84890;BME280;75153;52.222;5.160;2024-01-27T04:50:31;103478.13;;;2.67;83.95
84890;BME280;75153;52.222;5.160;2024-01-27T04:52:57;103478.94;;;2.67;83.80
84890;BME280;75153;52.222;5.160;2024-01-27T04:55:22;103469.91;;;2.62;84.57
84890;BME280;75153;52.222;5.160;2024-01-27T04:57:47;103463.28;;;2.67;84.18
84890;BME280;75153;52.222;5.160;2024-01-27T05:00:13;103469.84;;;2.72;83.77
84890;BME280;75153;52.222;5.160;2024-01-27T05:02:40;103464.91;;;2.68;83.98
84890;BME280;75153;52.222;5.160;2024-01-27T05:05:06;103465.91;;;2.67;83.93
84890;BME280;75153;52.222;5.160;2024-01-27T05:07:32;103464.13;;;2.68;84.24
84890;BME280;75153;52.222;5.160;2024-01-27T05:09:57;103469.47;;;2.66;84.36
84890;BME280;75153;52.222;5.160;2024-01-27T05:12:23;103465.78;;;2.69;83.87
84890;BME280;75153;52.222;5.160;2024-01-27T05:14:48;103464.28;;;2.66;84.18
84890;BME280;75153;52.222;5.160;2024-01-27T05:17:14;103469.63;;;2.65;84.00
84890;BME280;75153;52.222;5.160;2024-01-27T05:19:39;103464.56;;;2.63;84.15
84890;BME280;75153;52.222;5.160;2024-01-27T05:22:05;103466.34;;;2.63;83.93
84890;BME280;75153;52.222;5.160;2024-01-27T05:24:30;103462.91;;;2.62;83.77
84890;BME280;75153;52.222;5.160;2024-01-27T05:26:56;103453.31;;;2.63;83.72
84890;BME280;75153;52.222;5.160;2024-01-27T05:29:21;103451.31;;;2.57;83.88
84890;BME280;75153;52.222;5.160;2024-01-27T05:31:47;103453.09;;;2.56;84.28
84890;BME280;75153;52.222;5.160;2024-01-27T05:34:13;103444.84;;;2.61;83.52
84890;BME280;75153;52.222;5.160;2024-01-27T05:36:38;103448.69;;;2.57;84.27
84890;BME280;75153;52.222;5.160;2024-01-27T05:39:04;103444.59;;;2.54;84.67
84890;BME280;75153;52.222;5.160;2024-01-27T05:41:30;103439.78;;;2.59;84.05
84890;BME280;75153;52.222;5.160;2024-01-27T05:43:56;103444.47;;;2.56;84.47
84890;BME280;75153;52.222;5.160;2024-01-27T05:46:25;103439.56;;;2.53;84.24
84890;BME280;75153;52.222;5.160;2024-01-27T05:48:50;103446.81;;;2.49;84.75
84890;BME280;75153;52.222;5.160;2024-01-27T05:51:19;103453.00;;;2.48;84.50
84890;BME280;75153;52.222;5.160;2024-01-27T05:53:44;103449.44;;;2.49;84.55
84890;BME280;75153;52.222;5.160;2024-01-27T05:56:10;103442.75;;;2.46;84.61
84890;BME280;75153;52.222;5.160;2024-01-27T05:58:35;103440.50;;;2.52;84.28
84890;BME280;75153;52.222;5.160;2024-01-27T06:01:00;103441.47;;;2.51;84.58
84890;BME280;75153;52.222;5.160;2024-01-27T06:03:26;103448.78;;;2.47;84.43
84890;BME280;75153;52.222;5.160;2024-01-27T06:05:51;103450.56;;;2.46;84.42
84890;BME280;75153;52.222;5.160;2024-01-27T06:08:17;103457.25;;;2.49;84.05
84890;BME280;75153;52.222;5.160;2024-01-27T06:10:43;103461.50;;;2.50;84.13
84890;BME280;75153;52.222;5.160;2024-01-27T06:13:09;103458.22;;;2.48;84.60
84890;BME280;75153;52.222;5.160;2024-01-27T06:15:34;103451.38;;;2.47;84.34
84890;BME280;75153;52.222;5.160;2024-01-27T06:17:59;103457.53;;;2.46;84.88
84890;BME280;75153;52.222;5.160;2024-01-27T06:20:25;103444.91;;;2.51;84.31
84890;BME280;75153;52.222;5.160;2024-01-27T06:22:50;103456.81;;;2.54;84.41
84890;BME280;75153;52.222;5.160;2024-01-27T06:25:17;103448.00;;;2.55;84.49
84890;BME280;75153;52.222;5.160;2024-01-27T06:27:43;103450.91;;;2.52;84.59
84890;BME280;75153;52.222;5.160;2024-01-27T06:30:09;103452.31;;;2.46;84.87
84890;BME280;75153;52.222;5.160;2024-01-27T06:32:35;103447.78;;;2.48;84.61
84890;BME280;75153;52.222;5.160;2024-01-27T06:35:01;103448.63;;;2.48;84.70
84890;BME280;75153;52.222;5.160;2024-01-27T06:37:26;103441.78;;;2.47;84.37
84890;BME280;75153;52.222;5.160;2024-01-27T06:39:51;103440.16;;;2.46;84.39
84890;BME280;75153;52.222;5.160;2024-01-27T06:42:17;103437.69;;;2.45;84.21
84890;BME280;75153;52.222;5.160;2024-01-27T06:44:42;103436.06;;;2.44;84.55
84890;BME280;75153;52.222;5.160;2024-01-27T06:47:07;103438.78;;;2.42;84.44
84890;BME280;75153;52.222;5.160;2024-01-27T06:49:33;103436.34;;;2.41;84.38
84890;BME280;75153;52.222;5.160;2024-01-27T06:51:59;103437.00;;;2.43;84.24
84890;BME280;75153;52.222;5.160;2024-01-27T06:54:25;103448.69;;;2.39;84.22
84890;BME280;75153;52.222;5.160;2024-01-27T06:56:50;103449.66;;;2.38;84.16
84890;BME280;75153;52.222;5.160;2024-01-27T06:59:16;103447.19;;;2.36;84.03
84890;BME280;75153;52.222;5.160;2024-01-27T07:01:47;103447.31;;;2.35;84.09
84890;BME280;75153;52.222;5.160;2024-01-27T07:04:16;103448.47;;;2.32;83.99
84890;BME280;75153;52.222;5.160;2024-01-27T07:06:42;103453.38;;;2.35;84.46
84890;BME280;75153;52.222;5.160;2024-01-27T07:09:08;103460.22;;;2.36;84.25
84890;BME280;75153;52.222;5.160;2024-01-27T07:11:37;103454.03;;;2.37;84.38
84890;BME280;75153;52.222;5.160;2024-01-27T07:14:04;103461.41;;;2.42;84.67
84890;BME280;75153;52.222;5.160;2024-01-27T07:16:29;103464.81;;;2.42;84.82
84890;BME280;75153;52.222;5.160;2024-01-27T07:18:55;103463.19;;;2.41;84.71
84890;BME280;75153;52.222;5.160;2024-01-27T07:21:20;103464.25;;;2.48;84.22
84890;BME280;75153;52.222;5.160;2024-01-27T07:23:46;103470.84;;;2.43;84.68
84890;BME280;75153;52.222;5.160;2024-01-27T07:26:12;103482.94;;;2.44;84.72
84890;BME280;75153;52.222;5.160;2024-01-27T07:28:37;103486.19;;;2.46;85.06
84890;BME280;75153;52.222;5.160;2024-01-27T07:31:03;103480.97;;;2.46;84.89
84890;BME280;75153;52.222;5.160;2024-01-27T07:33:29;103487.03;;;2.46;85.08
84890;BME280;75153;52.222;5.160;2024-01-27T07:35:54;103486.72;;;2.50;84.94
84890;BME280;75153;52.222;5.160;2024-01-27T07:38:19;103488.66;;;2.47;84.97
84890;BME280;75153;52.222;5.160;2024-01-27T07:40:45;103479.06;;;2.48;85.37
84890;BME280;75153;52.222;5.160;2024-01-27T07:43:10;103488.50;;;2.49;85.19
84890;BME280;75153;52.222;5.160;2024-01-27T07:45:35;103484.66;;;2.53;85.27
84890;BME280;75153;52.222;5.160;2024-01-27T07:48:01;103483.66;;;2.54;85.05
84890;BME280;75153;52.222;5.160;2024-01-27T07:50:26;103499.28;;;2.54;84.99
84890;BME280;75153;52.222;5.160;2024-01-27T07:52:52;103492.03;;;2.58;85.09
84890;BME280;75153;52.222;5.160;2024-01-27T07:55:17;103496.09;;;2.60;85.00
84890;BME280;75153;52.222;5.160;2024-01-27T07:57:43;103496.78;;;2.62;84.98
84890;BME280;75153;52.222;5.160;2024-01-27T08:00:08;103499.63;;;2.69;84.55
84890;BME280;75153;52.222;5.160;2024-01-27T08:02:34;103501.09;;;2.72;84.71
84890;BME280;75153;52.222;5.160;2024-01-27T08:05:00;103503.72;;;2.72;84.60
84890;BME280;75153;52.222;5.160;2024-01-27T08:07:25;103494.94;;;2.73;84.93
84890;BME280;75153;52.222;5.160;2024-01-27T08:09:50;103496.44;;;2.75;85.12
84890;BME280;75153;52.222;5.160;2024-01-27T08:12:16;103490.75;;;2.80;84.85
84890;BME280;75153;52.222;5.160;2024-01-27T08:14:41;103489.94;;;2.79;84.75
84890;BME280;75153;52.222;5.160;2024-01-27T08:17:06;103493.06;;;2.83;84.89
84890;BME280;75153;52.222;5.160;2024-01-27T08:19:32;103496.06;;;2.88;84.88
84890;BME280;75153;52.222;5.160;2024-01-27T08:21:57;103498.34;;;2.91;84.71
84890;BME280;75153;52.222;5.160;2024-01-27T08:24:23;103501.50;;;2.95;84.41
84890;BME280;75153;52.222;5.160;2024-01-27T08:26:49;103498.91;;;2.95;84.86
84890;BME280;75153;52.222;5.160;2024-01-27T08:29:15;103500.09;;;3.00;84.63
84890;BME280;75153;52.222;5.160;2024-01-27T08:31:41;103501.56;;;3.03;84.83
84890;BME280;75153;52.222;5.160;2024-01-27T08:34:06;103501.13;;;3.07;84.59
84890;BME280;75153;52.222;5.160;2024-01-27T08:36:32;103496.59;;;3.09;84.77
84890;BME280;75153;52.222;5.160;2024-01-27T08:38:59;103504.00;;;3.22;84.05
84890;BME280;75153;52.222;5.160;2024-01-27T08:41:25;103498.97;;;3.21;84.80
84890;BME280;75153;52.222;5.160;2024-01-27T08:43:51;103499.97;;;3.28;84.50
84890;BME280;75153;52.222;5.160;2024-01-27T08:46:16;103510.09;;;3.31;84.72
84890;BME280;75153;52.222;5.160;2024-01-27T08:48:44;103507.56;;;3.39;84.24
84890;BME280;75153;52.222;5.160;2024-01-27T08:51:10;103514.78;;;3.45;84.39
84890;BME280;75153;52.222;5.160;2024-01-27T08:53:37;103519.41;;;3.51;84.43
84890;BME280;75153;52.222;5.160;2024-01-27T08:56:02;103526.16;;;3.62;84.36
84890;BME280;75153;52.222;5.160;2024-01-27T08:58:28;103509.06;;;3.68;84.48
84890;BME280;75153;52.222;5.160;2024-01-27T09:00:53;103502.09;;;3.76;83.88
84890;BME280;75153;52.222;5.160;2024-01-27T09:03:18;103509.84;;;3.86;83.50
84890;BME280;75153;52.222;5.160;2024-01-27T09:05:46;103506.59;;;3.92;82.96
84890;BME280;75153;52.222;5.160;2024-01-27T09:08:12;103506.59;;;3.92;83.22
84890;BME280;75153;52.222;5.160;2024-01-27T09:10:37;103514.75;;;3.89;83.23
84890;BME280;75153;52.222;5.160;2024-01-27T09:13:03;103513.94;;;3.89;83.50
84890;BME280;75153;52.222;5.160;2024-01-27T09:15:30;103516.91;;;3.94;83.00
84890;BME280;75153;52.222;5.160;2024-01-27T09:17:55;103517.34;;;3.89;83.25
84890;BME280;75153;52.222;5.160;2024-01-27T09:20:20;103529.28;;;3.92;83.49
84890;BME280;75153;52.222;5.160;2024-01-27T09:22:46;103526.22;;;3.96;82.93
84890;BME280;75153;52.222;5.160;2024-01-27T09:25:13;103531.44;;;3.96;83.26
84890;BME280;75153;52.222;5.160;2024-01-27T09:27:39;103526.53;;;4.01;83.32
84890;BME280;75153;52.222;5.160;2024-01-27T09:30:05;103535.09;;;4.12;82.86
84890;BME280;75153;52.222;5.160;2024-01-27T09:32:30;103533.78;;;4.16;82.52
84890;BME280;75153;52.222;5.160;2024-01-27T09:34:56;103534.63;;;4.16;82.50
84890;BME280;75153;52.222;5.160;2024-01-27T09:37:21;103538.25;;;4.23;82.62
84890;BME280;75153;52.222;5.160;2024-01-27T09:39:46;103540.41;;;4.28;81.97
84890;BME280;75153;52.222;5.160;2024-01-27T09:42:13;103538.09;;;4.25;82.39
84890;BME280;75153;52.222;5.160;2024-01-27T09:44:48;103544.81;;;4.36;82.08
84890;BME280;75153;52.222;5.160;2024-01-27T09:47:15;103555.25;;;4.36;82.43
84890;BME280;75153;52.222;5.160;2024-01-27T09:49:40;103558.41;;;4.39;82.51
84890;BME280;75153;52.222;5.160;2024-01-27T09:52:07;103556.47;;;4.49;82.25
84890;BME280;75153;52.222;5.160;2024-01-27T09:54:34;103557.63;;;4.55;82.11
84890;BME280;75153;52.222;5.160;2024-01-27T09:57:00;103560.44;;;4.62;82.06
84890;BME280;75153;52.222;5.160;2024-01-27T09:59:26;103568.28;;;4.62;82.31
84890;BME280;75153;52.222;5.160;2024-01-27T10:01:52;103569.94;;;4.71;81.92
84890;BME280;75153;52.222;5.160;2024-01-27T10:04:19;103575.34;;;4.78;81.63
84890;BME280;75153;52.222;5.160;2024-01-27T10:06:46;103574.69;;;4.84;81.58
84890;BME280;75153;52.222;5.160;2024-01-27T10:09:13;103575.72;;;4.91;81.52
84890;BME280;75153;52.222;5.160;2024-01-27T10:11:43;103573.09;;;4.99;81.08
84890;BME280;75153;52.222;5.160;2024-01-27T10:14:10;103570.50;;;5.07;80.57
84890;BME280;75153;52.222;5.160;2024-01-27T10:16:43;103573.78;;;5.17;80.51
84890;BME280;75153;52.222;5.160;2024-01-27T10:19:16;103578.69;;;5.21;80.27
84890;BME280;75153;52.222;5.160;2024-01-27T10:21:43;103587.06;;;5.32;80.39
84890;BME280;75153;52.222;5.160;2024-01-27T10:24:08;103589.00;;;5.38;80.39
84890;BME280;75153;52.222;5.160;2024-01-27T10:26:34;103588.84;;;5.48;79.90
84890;BME280;75153;52.222;5.160;2024-01-27T10:29:00;103590.97;;;5.53;80.34
84890;BME280;75153;52.222;5.160;2024-01-27T10:31:27;103588.38;;;5.53;79.94
84890;BME280;75153;52.222;5.160;2024-01-27T10:33:54;103587.38;;;5.54;79.31
84890;BME280;75153;52.222;5.160;2024-01-27T10:36:20;103587.53;;;5.69;78.99
84890;BME280;75153;52.222;5.160;2024-01-27T10:38:45;103580.31;;;5.71;79.14
84890;BME280;75153;52.222;5.160;2024-01-27T10:41:10;103580.78;;;5.82;78.88
84890;BME280;75153;52.222;5.160;2024-01-27T10:43:37;103577.22;;;5.83;79.08
84890;BME280;75153;52.222;5.160;2024-01-27T10:46:07;103583.09;;;5.85;78.74
84890;BME280;75153;52.222;5.160;2024-01-27T10:48:34;103573.44;;;5.94;78.67
84890;BME280;75153;52.222;5.160;2024-01-27T10:51:03;103557.88;;;6.09;78.41
84890;BME280;75153;52.222;5.160;2024-01-27T10:53:32;103567.00;;;6.13;77.25
84890;BME280;75153;52.222;5.160;2024-01-27T10:56:00;103563.56;;;6.21;76.88
84890;BME280;75153;52.222;5.160;2024-01-27T10:58:27;103577.00;;;6.18;77.34
84890;BME280;75153;52.222;5.160;2024-01-27T11:00:53;103566.50;;;6.26;77.47
84890;BME280;75153;52.222;5.160;2024-01-27T11:03:22;103575.13;;;6.35;76.84
84890;BME280;75153;52.222;5.160;2024-01-27T11:05:50;103570.50;;;6.45;76.13
84890;BME280;75153;52.222;5.160;2024-01-27T11:08:18;103568.53;;;6.47;76.33
84890;BME280;75153;52.222;5.160;2024-01-27T11:10:44;103565.09;;;6.46;75.56
84890;BME280;75153;52.222;5.160;2024-01-27T11:13:10;103576.47;;;6.62;75.55
84890;BME280;75153;52.222;5.160;2024-01-27T11:15:36;103571.03;;;6.40;75.35
84890;BME280;75153;52.222;5.160;2024-01-27T11:18:01;103569.25;;;6.64;74.74
84890;BME280;75153;52.222;5.160;2024-01-27T11:20:32;103570.06;;;6.64;74.78
84890;BME280;75153;52.222;5.160;2024-01-27T11:23:12;103566.13;;;6.68;75.20
84890;BME280;75153;52.222;5.160;2024-01-27T11:25:39;103574.59;;;6.79;75.12
84890;BME280;75153;52.222;5.160;2024-01-27T11:28:16;103566.31;;;6.90;75.22
84890;BME280;75153;52.222;5.160;2024-01-27T11:30:46;103561.72;;;6.92;73.74
84890;BME280;75153;52.222;5.160;2024-01-27T11:33:12;103548.66;;;6.84;73.08
84890;BME280;75153;52.222;5.160;2024-01-27T11:35:37;103554.66;;;6.92;72.54
84890;BME280;75153;52.222;5.160;2024-01-27T11:38:03;103544.13;;;7.01;72.72
84890;BME280;75153;52.222;5.160;2024-01-27T11:40:28;103548.56;;;7.00;73.09
84890;BME280;75153;52.222;5.160;2024-01-27T11:42:58;103546.22;;;7.05;72.74
84890;BME280;75153;52.222;5.160;2024-01-27T11:45:24;103542.03;;;7.19;73.14
84890;BME280;75153;52.222;5.160;2024-01-27T11:47:50;103538.97;;;7.30;71.34
84890;BME280;75153;52.222;5.160;2024-01-27T11:50:19;103540.44;;;7.10;71.31
84890;BME280;75153;52.222;5.160;2024-01-27T11:52:46;103539.88;;;7.23;71.53
84890;BME280;75153;52.222;5.160;2024-01-27T11:55:11;103534.63;;;7.23;71.00
84890;BME280;75153;52.222;5.160;2024-01-27T11:57:36;103535.47;;;7.38;71.51
84890;BME280;75153;52.222;5.160;2024-01-27T12:00:02;103539.31;;;7.50;70.51
84890;BME280;75153;52.222;5.160;2024-01-27T12:02:31;103540.13;;;7.51;70.89
84890;BME280;75153;52.222;5.160;2024-01-27T12:04:57;103550.13;;;7.47;69.98
84890;BME280;75153;52.222;5.160;2024-01-27T12:07:23;103544.38;;;7.67;70.40
84890;BME280;75153;52.222;5.160;2024-01-27T12:09:49;103535.25;;;7.77;70.88
84890;BME280;75153;52.222;5.160;2024-01-27T12:12:15;103528.47;;;7.83;69.36
84890;BME280;75153;52.222;5.160;2024-01-27T12:14:45;103537.88;;;7.92;69.27
84890;BME280;75153;52.222;5.160;2024-01-27T12:17:13;103522.09;;;7.92;67.74
84890;BME280;75153;52.222;5.160;2024-01-27T12:19:38;103518.03;;;7.90;68.49
84890;BME280;75153;52.222;5.160;2024-01-27T12:22:04;103502.38;;;7.96;67.15
84890;BME280;75153;52.222;5.160;2024-01-27T12:24:30;103513.16;;;8.01;67.44
84890;BME280;75153;52.222;5.160;2024-01-27T12:26:59;103510.16;;;7.90;65.94
84890;BME280;75153;52.222;5.160;2024-01-27T12:29:25;103511.53;;;7.85;66.25
84890;BME280;75153;52.222;5.160;2024-01-27T12:31:50;103499.38;;;7.99;65.92
84890;BME280;75153;52.222;5.160;2024-01-27T12:34:17;103510.31;;;8.03;67.25
84890;BME280;75153;52.222;5.160;2024-01-27T12:36:43;103503.81;;;8.14;66.61
84890;BME280;75153;52.222;5.160;2024-01-27T12:39:09;103509.22;;;8.12;67.17
84890;BME280;75153;52.222;5.160;2024-01-27T12:41:35;103516.50;;;8.10;67.06
84890;BME280;75153;52.222;5.160;2024-01-27T12:44:01;103515.41;;;8.04;67.24
84890;BME280;75153;52.222;5.160;2024-01-27T12:46:29;103519.88;;;8.04;67.28
84890;BME280;75153;52.222;5.160;2024-01-27T12:48:55;103521.56;;;8.12;67.08
84890;BME280;75153;52.222;5.160;2024-01-27T12:51:20;103520.31;;;8.07;67.18
84890;BME280;75153;52.222;5.160;2024-01-27T12:53:46;103519.28;;;8.08;67.04